Time;durP1;ratioP1;P1;durP2;ratioP2;P2;SDS_P1;SDS_P2;PMS_P1;PMS_P2;Temp;Humidity;BMP_temperature;BMP_pressure;BME280_temperature;BME280_humidity;BME280_pressure;Samples;Min_cycle;Max_cycle;Signal;HPM_P1;HPM_P2
2022/09/20 00:01:27;;;;;;;4.07;1.05;;;13.90;99.90;;;;;;5085845;28;20264;-77
2022/09/20 00:03:58;;;;;;;2.63;1.10;;;14.00;99.90;;;;;;5079687;28;20176;-78
2022/09/20 00:06:26;;;;;;;1.98;1.00;;;13.90;99.90;;;;;;5076806;28;20173;-78
2022/09/20 00:08:53;;;;;;;3.22;0.90;;;13.90;99.90;;;;;;5073922;28;20241;-78
2022/09/20 00:11:22;;;;;;;2.38;0.90;;;13.90;99.90;;;;;;5076526;28;20180;-76
2022/09/20 00:13:53;;;;;;;2.83;1.00;;;13.90;99.90;;;;;;5076988;28;20258;-77
2022/09/20 00:16:23;;;;;;;5.85;1.27;;;13.90;99.90;;;;;;5078861;28;20221;-75
2022/09/20 00:18:50;;;;;;;2.75;1.27;;;13.80;99.90;;;;;;5106188;28;20181;-77
2022/09/20 00:21:18;;;;;;;3.35;1.15;;;13.80;99.90;;;;;;5079668;28;20171;-77
2022/09/20 00:23:44;;;;;;;2.00;1.00;;;13.80;99.90;;;;;;5083167;28;20251;-77
2022/09/20 00:26:10;;;;;;;3.60;1.05;;;13.80;99.90;;;;;;5079031;28;20214;-78
2022/09/20 00:28:38;;;;;;;3.13;1.10;;;13.80;99.90;;;;;;5079116;28;20183;-78
2022/09/20 00:31:06;;;;;;;2.88;0.90;;;13.80;99.90;;;;;;5073988;28;20187;-77
2022/09/20 00:36:22;;;;;;;2.95;1.10;;;13.70;99.90;;;;;;5095186;28;20211;-78
2022/09/20 00:38:50;;;;;;;3.47;1.00;;;13.70;99.90;;;;;;5076485;28;20197;-78
2022/09/20 00:41:15;;;;;;;4.32;1.00;;;13.60;99.90;;;;;;5066532;28;20169;-78
2022/09/20 00:43:44;;;;;;;1.98;0.80;;;13.60;99.90;;;;;;5070236;28;20180;-79
2022/09/20 00:46:50;;;;;;;2.58;1.00;;;13.60;99.90;;;;;;5078540;28;20249;-77
2022/09/20 00:49:28;;;;;;;1.65;1.00;;;13.50;99.90;;;;;;5067020;28;20172;-77
2022/09/20 00:51:59;;;;;;;2.53;1.17;;;13.50;99.90;;;;;;5078284;28;20176;-77
2022/09/20 00:54:30;;;;;;;2.97;1.02;;;13.50;99.90;;;;;;5078806;28;20226;-77
2022/09/20 00:56:56;;;;;;;2.75;1.13;;;13.50;99.90;;;;;;5079615;28;20168;-77
2022/09/20 00:59:37;;;;;;;3.85;1.23;;;13.50;99.90;;;;;;5079486;28;20164;-77
2022/09/20 01:02:11;;;;;;;3.05;1.13;;;13.50;99.90;;;;;;5060433;28;20265;-77
2022/09/20 01:04:40;;;;;;;2.42;1.15;;;13.50;99.90;;;;;;5077110;28;20378;-77
2022/09/20 01:07:09;;;;;;;2.90;1.10;;;13.50;99.90;;;;;;5078655;28;20192;-77
2022/09/20 01:09:34;;;;;;;2.80;1.30;;;13.50;99.90;;;;;;5066245;28;20200;-77
2022/09/20 01:12:05;;;;;;;3.88;1.20;;;13.50;99.90;;;;;;5078177;28;20233;-76
2022/09/20 01:14:31;;;;;;;2.60;1.08;;;13.50;99.90;;;;;;5077536;28;20208;-77
2022/09/20 01:17:04;;;;;;;1.77;1.02;;;13.50;99.90;;;;;;5077025;28;20222;-77
2022/09/20 01:19:49;;;;;;;4.53;1.30;;;13.50;99.90;;;;;;5093254;28;20180;-76
2022/09/20 01:22:47;;;;;;;2.47;1.05;;;13.50;99.90;;;;;;5078083;28;20164;-77
2022/09/20 01:25:37;;;;;;;1.65;1.00;;;13.50;99.90;;;;;;5070156;28;20196;-77
2022/09/20 01:28:03;;;;;;;2.67;1.20;;;13.50;99.90;;;;;;5069397;28;20184;-76
2022/09/20 01:30:56;;;;;;;2.20;1.00;;;13.50;99.90;;;;;;5078103;28;20222;-76
2022/09/20 01:34:01;;;;;;;2.30;1.10;;;13.50;99.90;;;;;;5036459;28;20214;-77
2022/09/20 01:36:44;;;;;;;2.60;1.05;;;13.50;99.90;;;;;;5058438;28;20256;-77
2022/09/20 01:39:47;;;;;;;3.88;1.35;;;13.50;99.90;;;;;;5079856;28;20233;-77
2022/09/20 01:42:15;;;;;;;4.18;1.13;;;13.50;99.90;;;;;;5005128;28;20175;-77
2022/09/20 01:45:06;;;;;;;5.32;1.63;;;13.50;99.90;;;;;;5070184;28;20249;-77
2022/09/20 01:47:34;;;;;;;4.45;1.85;;;13.50;99.90;;;;;;5077946;28;20211;-78
2022/09/20 01:50:30;;;;;;;4.50;1.30;;;13.50;99.90;;;;;;5077537;28;20314;-77
2022/09/20 01:53:34;;;;;;;3.65;1.50;;;13.50;99.90;;;;;;5072300;28;20203;-77
2022/09/20 01:56:08;;;;;;;2.67;1.27;;;13.60;99.90;;;;;;5072056;28;20178;-77
2022/09/20 01:59:05;;;;;;;4.15;1.25;;;13.50;99.90;;;;;;5070494;28;20172;-76
2022/09/20 02:01:31;;;;;;;3.65;1.52;;;13.60;99.90;;;;;;5090955;28;20207;-77
2022/09/20 02:04:21;;;;;;;6.25;1.50;;;13.60;99.90;;;;;;5068017;28;20179;-77
2022/09/20 02:07:05;;;;;;;2.20;1.30;;;13.60;99.90;;;;;;5077796;28;20255;-77
2022/09/20 02:10:02;;;;;;;3.08;1.30;;;13.60;99.90;;;;;;5070505;28;20195;-78
2022/09/20 02:12:42;;;;;;;3.70;1.55;;;13.50;99.90;;;;;;5077589;28;20320;-78
2022/09/20 02:15:46;;;;;;;2.65;1.60;;;13.60;99.90;;;;;;5094824;28;20226;-78
2022/09/20 02:18:23;;;;;;;4.50;1.65;;;13.60;99.90;;;;;;5023214;28;20191;-78
2022/09/20 02:21:02;;;;;;;3.13;1.58;;;13.50;99.90;;;;;;5075757;28;20167;-78
2022/09/20 02:23:57;;;;;;;3.80;2.00;;;13.50;99.90;;;;;;5057830;28;20211;-78
2022/09/20 02:26:52;;;;;;;3.40;1.75;;;13.50;99.90;;;;;;5074658;28;20180;-78
2022/09/20 02:29:29;;;;;;;2.25;1.40;;;13.50;99.90;;;;;;5073478;28;20199;-78
2022/09/20 02:32:25;;;;;;;7.95;2.10;;;13.50;99.90;;;;;;5060764;28;20267;-77
2022/09/20 02:35:21;;;;;;;2.83;1.60;;;13.50;99.90;;;;;;5076815;28;20160;-78
2022/09/20 02:37:53;;;;;;;2.15;1.40;;;13.50;99.90;;;;;;5059231;28;20188;-78
2022/09/20 02:40:46;;;;;;;4.65;1.77;;;13.50;99.90;;;;;;5068420;28;20179;-78
2022/09/20 02:43:39;;;;;;;5.38;1.75;;;13.50;99.90;;;;;;5081210;28;20242;-77
2022/09/20 02:46:27;;;;;;;4.57;1.90;;;13.40;99.90;;;;;;5074026;28;20176;-78
2022/09/20 02:49:14;;;;;;;5.57;1.67;;;13.40;99.90;;;;;;5081014;28;20287;-78
2022/09/20 02:51:51;;;;;;;3.05;1.30;;;13.40;99.90;;;;;;5072507;28;20258;-78
2022/09/20 02:54:31;;;;;;;4.88;1.50;;;13.40;99.90;;;;;;5081405;28;20187;-78
2022/09/20 02:57:22;;;;;;;4.47;1.80;;;13.30;99.90;;;;;;5080809;28;20352;-78
2022/09/20 03:00:03;;;;;;;2.78;1.58;;;13.30;99.90;;;;;;5085952;28;20211;-78
2022/09/20 03:02:53;;;;;;;2.25;1.30;;;13.30;99.90;;;;;;5069021;28;20192;-78
2022/09/20 03:05:25;;;;;;;3.60;1.73;;;13.20;99.90;;;;;;5078651;28;20175;-77
2022/09/20 03:08:28;;;;;;;4.10;1.63;;;13.20;99.90;;;;;;5081356;28;20199;-78
2022/09/20 03:11:10;;;;;;;3.00;1.38;;;13.20;99.90;;;;;;5076861;28;20244;-75
2022/09/20 03:13:54;;;;;;;4.05;1.70;;;13.20;99.90;;;;;;5080186;28;20188;-77
2022/09/20 03:16:35;;;;;;;3.85;1.77;;;13.10;99.90;;;;;;5067505;28;20202;-78
2022/09/20 03:19:06;;;;;;;3.25;1.33;;;13.10;99.90;;;;;;5091723;28;20164;-77
2022/09/20 03:22:07;;;;;;;3.58;1.90;;;13.10;99.90;;;;;;5080698;28;20179;-78
2022/09/20 03:24:39;;;;;;;3.20;1.50;;;13.10;99.90;;;;;;5073424;28;20178;-78
2022/09/20 03:27:05;;;;;;;3.05;1.42;;;13.00;99.90;;;;;;5079802;28;20176;-77
2022/09/20 03:30:01;;;;;;;4.32;1.50;;;13.00;99.90;;;;;;5063127;28;20196;-78
2022/09/20 03:32:57;;;;;;;2.50;1.30;;;13.00;99.90;;;;;;5078544;28;20196;-78
2022/09/20 03:35:48;;;;;;;2.45;1.33;;;13.00;99.90;;;;;;5078825;28;20168;-78
2022/09/20 03:38:37;;;;;;;2.35;1.20;;;13.00;99.90;;;;;;5087730;28;20691;-77
2022/09/20 03:41:24;;;;;;;2.72;1.50;;;12.90;99.90;;;;;;5080135;28;20160;-79
2022/09/20 03:44:02;;;;;;;3.15;1.23;;;12.90;99.90;;;;;;5075208;28;20207;-78
2022/09/20 03:46:47;;;;;;;2.97;1.33;;;12.90;99.90;;;;;;5064079;28;20175;-78
2022/09/20 03:49:55;;;;;;;5.15;1.70;;;12.90;99.90;;;;;;5079751;28;20168;-78
2022/09/20 03:52:35;;;;;;;2.53;1.55;;;12.90;99.90;;;;;;5078649;28;20203;-77
2022/09/20 03:55:21;;;;;;;2.50;1.70;;;12.90;99.90;;;;;;5079951;28;20175;-78
2022/09/20 03:58:11;;;;;;;4.30;1.52;;;12.90;99.90;;;;;;5078898;28;20199;-78
2022/09/20 04:01:04;;;;;;;3.60;1.60;;;12.90;99.90;;;;;;5077190;28;20199;-78
2022/09/20 04:04:07;;;;;;;3.15;1.33;;;12.90;99.90;;;;;;5079588;28;20256;-78
2022/09/20 04:06:53;;;;;;;2.20;1.50;;;13.00;99.90;;;;;;5075376;28;20175;-77
2022/09/20 04:09:46;;;;;;;5.28;1.45;;;13.00;99.90;;;;;;5028463;28;20206;-78
2022/09/20 04:12:37;;;;;;;3.50;1.30;;;13.00;99.90;;;;;;5079558;28;20352;-77
2022/09/20 04:15:11;;;;;;;3.08;1.35;;;13.00;99.90;;;;;;5077103;28;20207;-77
2022/09/20 04:18:10;;;;;;;2.63;1.40;;;13.00;99.90;;;;;;5069029;28;20231;-79
2022/09/20 04:21:07;;;;;;;4.78;2.10;;;13.00;99.90;;;;;;5079688;28;20160;-78
2022/09/20 04:23:52;;;;;;;5.72;1.45;;;12.90;99.90;;;;;;5065971;28;20175;-77
2022/09/20 04:26:33;;;;;;;4.03;1.60;;;12.90;99.90;;;;;;5093845;28;20198;-77
2022/09/20 04:29:13;;;;;;;3.45;1.75;;;12.90;99.90;;;;;;5074900;28;20197;-78
2022/09/20 04:31:49;;;;;;;5.53;1.70;;;12.90;99.90;;;;;;5074466;28;20212;-78
2022/09/20 04:36:27;;;;;;;3.80;1.63;;;12.80;99.90;;;;;;5071397;28;20192;-78
2022/09/20 04:37:32;;;;;;;2.85;1.60;;;12.80;99.90;;;;;;5088912;28;20610;-77
2022/09/20 04:40:47;;;;;;;3.03;1.50;;;12.80;99.90;;;;;;5074861;28;20176;-77
2022/09/20 04:43:52;;;;;;;1.98;1.63;;;12.80;99.90;;;;;;5049871;28;20275;-77
2022/09/20 04:46:18;;;;;;;3.70;1.60;;;12.80;99.90;;;;;;5068475;28;20289;-76
2022/09/20 04:49:10;;;;;;;3.08;1.58;;;12.80;99.90;;;;;;5068893;28;20188;-77
2022/09/20 04:52:18;;;;;;;3.38;1.50;;;12.80;99.90;;;;;;5086437;28;20176;-77
2022/09/20 04:54:50;;;;;;;3.60;1.52;;;12.80;99.90;;;;;;5078894;28;20332;-77
2022/09/20 04:57:27;;;;;;;3.70;1.58;;;12.80;99.90;;;;;;5078628;28;20184;-77
2022/09/20 05:00:07;;;;;;;2.97;1.45;;;12.80;99.90;;;;;;5069709;28;20176;-74
2022/09/20 05:02:51;;;;;;;5.03;1.77;;;12.80;99.90;;;;;;5083256;28;20308;-78
2022/09/20 05:05:29;;;;;;;4.10;1.63;;;12.80;99.90;;;;;;5076779;28;20182;-78
2022/09/20 05:08:35;;;;;;;5.50;1.67;;;12.70;99.90;;;;;;5070496;28;20261;-78
2022/09/20 05:11:33;;;;;;;3.58;2.00;;;12.70;99.90;;;;;;5059131;28;20187;-78
2022/09/20 05:14:21;;;;;;;5.03;2.00;;;12.70;99.90;;;;;;5029874;28;20226;-78
2022/09/20 05:17:06;;;;;;;4.13;1.83;;;12.70;99.90;;;;;;5067762;28;20176;-79
2022/09/20 05:19:43;;;;;;;3.20;1.95;;;12.70;99.90;;;;;;5071831;28;20179;-78
2022/09/20 05:22:27;;;;;;;4.20;2.40;;;12.80;99.90;;;;;;5073730;28;20221;-78
2022/09/20 05:24:53;;;;;;;4.40;2.38;;;12.70;99.90;;;;;;5073291;28;20172;-78
2022/09/20 05:27:35;;;;;;;4.45;2.65;;;12.70;99.90;;;;;;5077679;28;20164;-79
2022/09/20 05:30:24;;;;;;;5.20;2.50;;;12.80;99.90;;;;;;5077130;28;20175;-78
2022/09/20 05:33:13;;;;;;;4.32;2.70;;;12.80;99.90;;;;;;5081590;28;20192;-77
2022/09/20 05:36:00;;;;;;;2.45;1.92;;;12.80;99.90;;;;;;5078079;28;20179;-77
2022/09/20 05:38:44;;;;;;;4.47;1.92;;;12.90;99.90;;;;;;5077941;28;20182;-76
2022/09/20 05:41:23;;;;;;;1.95;1.65;;;12.90;99.90;;;;;;5077893;28;20267;-72
2022/09/20 05:43:54;;;;;;;2.85;1.65;;;12.90;99.90;;;;;;5086864;28;20260;-70
2022/09/20 05:46:50;;;;;;;5.07;1.67;;;13.00;99.90;;;;;;5057841;28;20172;-77
2022/09/20 05:49:28;;;;;;;2.35;1.45;;;13.00;99.90;;;;;;5063698;28;20172;-77
2022/09/20 05:52:14;;;;;;;4.47;1.92;;;13.00;99.90;;;;;;5077875;28;20263;-78
2022/09/20 05:55:01;;;;;;;4.43;1.65;;;13.10;99.90;;;;;;5071769;28;20208;-78
2022/09/20 05:57:55;;;;;;;2.40;1.40;;;13.10;99.90;;;;;;5077662;28;20277;-79
2022/09/20 06:00:26;;;;;;;4.28;1.65;;;13.10;99.90;;;;;;5077172;28;20192;-79
2022/09/20 06:03:20;;;;;;;4.25;1.58;;;13.10;99.90;;;;;;5077747;28;20278;-78
2022/09/20 06:06:13;;;;;;;3.25;1.52;;;13.20;99.90;;;;;;5077903;28;20160;-78
2022/09/20 06:08:45;;;;;;;4.05;1.80;;;13.20;99.90;;;;;;5078014;28;20214;-77
2022/09/20 06:11:38;;;;;;;3.17;1.95;;;13.30;99.90;;;;;;5077493;28;20392;-78
2022/09/20 06:14:20;;;;;;;3.10;1.85;;;13.20;99.90;;;;;;5077591;28;20328;-77
2022/09/20 06:17:15;;;;;;;4.25;2.00;;;13.30;99.90;;;;;;5081808;28;20199;-77
2022/09/20 06:19:52;;;;;;;4.03;2.10;;;13.30;99.90;;;;;;5081793;28;20179;-77
2022/09/20 06:22:23;;;;;;;4.03;1.90;;;13.30;99.90;;;;;;5081321;28;20218;-77
2022/09/20 06:24:53;;;;;;;3.08;2.13;;;13.40;99.90;;;;;;5075226;28;20177;-77
2022/09/20 06:27:27;;;;;;;2.95;1.85;;;13.40;99.90;;;;;;5081885;28;20203;-77
2022/09/20 06:30:06;;;;;;;3.80;2.17;;;13.40;99.90;;;;;;5074845;28;20359;-78
2022/09/20 06:32:34;;;;;;;4.50;2.03;;;13.40;99.90;;;;;;5080390;28;20192;-77
2022/09/20 06:35:01;;;;;;;6.90;2.70;;;13.40;99.90;;;;;;5076832;28;20172;-78
2022/09/20 06:43:40;;;;;;;5.78;2.60;;;13.50;99.90;;;;;;5099263;28;20183;-78
2022/09/20 06:46:09;;;;;;;4.10;3.03;;;13.50;99.90;;;;;;5067004;28;20180;-78
2022/09/20 06:48:38;;;;;;;4.72;2.70;;;13.50;99.90;;;;;;5069215;28;20172;-76
2022/09/20 06:51:08;;;;;;;5.35;3.22;;;13.50;99.90;;;;;;5081093;28;20186;-78
2022/09/20 06:53:39;;;;;;;4.22;2.90;;;13.60;99.90;;;;;;5081327;28;20211;-78
2022/09/20 06:56:15;;;;;;;4.60;3.40;;;13.60;99.90;;;;;;5080251;28;20164;-77
2022/09/20 06:58:41;;;;;;;6.63;4.10;;;13.60;99.90;;;;;;5081052;28;20195;-78
2022/09/20 07:01:12;;;;;;;4.15;3.22;;;13.60;99.90;;;;;;5068985;28;20164;-77
2022/09/20 07:03:43;;;;;;;6.50;3.70;;;13.60;99.90;;;;;;5077236;28;20173;-77
2022/09/20 07:06:09;;;;;;;6.03;3.58;;;13.60;99.90;;;;;;5061192;28;20259;-78
2022/09/20 07:08:38;;;;;;;6.35;4.70;;;13.70;99.90;;;;;;5078193;28;20183;-78
2022/09/20 07:11:14;;;;;;;9.10;5.03;;;13.70;99.90;;;;;;5080459;28;20180;-78
2022/09/20 07:13:41;;;;;;;6.88;4.28;;;13.70;99.90;;;;;;5084029;28;20218;-78
2022/09/20 07:16:07;;;;;;;4.95;3.83;;;13.80;99.90;;;;;;5079727;28;20195;-78
2022/09/20 07:18:34;;;;;;;7.75;4.32;;;13.70;99.90;;;;;;5074491;28;20191;-78
2022/09/20 07:21:05;;;;;;;7.75;5.15;;;13.80;99.90;;;;;;5079774;28;20179;-78
2022/09/20 07:23:32;;;;;;;6.70;4.55;;;13.90;99.90;;;;;;5080600;28;20206;-78
2022/09/20 07:26:01;;;;;;;7.82;4.25;;;13.90;99.90;;;;;;5078004;28;20200;-78
2022/09/20 07:28:30;;;;;;;6.72;4.40;;;13.90;99.90;;;;;;5071250;28;20290;-77
2022/09/20 07:31:01;;;;;;;6.90;4.40;;;13.90;99.90;;;;;;5065179;28;20176;-77
2022/09/20 07:33:26;;;;;;;10.40;4.63;;;13.90;99.90;;;;;;5080328;28;20268;-76
2022/09/20 07:35:55;;;;;;;8.07;4.78;;;14.00;99.90;;;;;;5063722;28;20196;-77
2022/09/20 07:38:22;;;;;;;7.00;4.75;;;14.00;99.90;;;;;;5060164;28;20250;-76
2022/09/20 07:41:01;;;;;;;6.88;4.82;;;14.10;99.90;;;;;;5080199;28;20171;-78
2022/09/20 07:43:29;;;;;;;10.00;4.97;;;14.10;99.90;;;;;;5080256;28;20172;-77
2022/09/20 07:45:58;;;;;;;10.25;5.43;;;14.20;99.90;;;;;;5079899;28;20283;-77
2022/09/20 07:48:28;;;;;;;7.15;5.38;;;14.30;99.90;;;;;;5080758;28;20183;-76
2022/09/20 07:51:03;;;;;;;6.30;4.68;;;14.30;99.90;;;;;;5077244;28;20285;-76
2022/09/20 07:53:31;;;;;;;8.07;5.28;;;14.40;99.90;;;;;;5075195;28;20195;-77
2022/09/20 07:55:57;;;;;;;7.20;5.30;;;14.50;99.90;;;;;;5070697;28;20200;-80
2022/09/20 07:58:25;;;;;;;6.07;4.97;;;14.60;99.90;;;;;;5079589;28;20176;-78
2022/09/20 08:00:59;;;;;;;7.75;4.70;;;14.60;99.90;;;;;;5079880;28;20168;-80
2022/09/20 08:03:25;;;;;;;6.70;4.25;;;14.60;99.90;;;;;;5080586;28;20207;-78
2022/09/20 08:05:57;;;;;;;5.28;4.20;;;14.70;99.90;;;;;;5076892;28;20172;-79
2022/09/20 08:08:25;;;;;;;7.20;4.20;;;14.80;99.90;;;;;;5067726;28;20199;-80
2022/09/20 08:11:03;;;;;;;5.00;4.00;;;14.80;99.90;;;;;;5079571;28;20190;-80
2022/09/20 08:13:29;;;;;;;7.57;4.28;;;14.80;99.90;;;;;;5080504;28;20195;-79
2022/09/20 08:16:07;;;;;;;6.80;4.00;;;14.90;99.90;;;;;;5079055;28;20196;-80
2022/09/20 08:18:37;;;;;;;5.32;3.75;;;14.90;99.90;;;;;;5066450;28;20176;-78
2022/09/20 08:21:10;;;;;;;4.63;3.33;;;15.00;99.90;;;;;;5079957;28;20193;-79
2022/09/20 08:23:40;;;;;;;5.97;3.17;;;15.00;99.90;;;;;;5078937;28;20217;-80
2022/09/20 08:26:11;;;;;;;4.65;2.88;;;15.00;99.90;;;;;;5079262;28;20210;-79
2022/09/20 08:28:40;;;;;;;6.65;3.35;;;15.00;99.90;;;;;;5079198;28;20196;-78
2022/09/20 08:31:11;;;;;;;5.18;2.85;;;15.00;99.90;;;;;;5078881;28;20210;-79
2022/09/20 08:33:38;;;;;;;5.72;3.35;;;15.10;99.90;;;;;;5079410;28;20187;-80
2022/09/20 08:36:07;;;;;;;5.95;3.08;;;15.10;99.90;;;;;;5078896;28;20219;-79
2022/09/20 08:38:40;;;;;;;4.68;2.58;;;15.10;99.90;;;;;;5078565;28;20266;-79
2022/09/20 08:41:39;;;;;;;4.57;2.58;;;15.10;99.90;;;;;;5078930;28;20283;-79
2022/09/20 08:44:12;;;;;;;4.45;2.25;;;15.10;99.90;;;;;;5084475;28;20180;-77
2022/09/20 08:47:10;;;;;;;5.00;2.17;;;15.20;99.90;;;;;;5073803;28;20165;-80
2022/09/20 08:49:39;;;;;;;5.00;2.00;;;15.20;99.90;;;;;;5069568;28;20232;-80
2022/09/20 08:52:08;;;;;;;4.07;2.10;;;15.20;99.90;;;;;;5058985;28;20176;-80
2022/09/20 08:54:34;;;;;;;6.45;1.92;;;15.30;99.90;;;;;;5058532;28;20202;-79
2022/09/20 08:57:10;;;;;;;3.40;1.90;;;15.30;99.90;;;;;;5058652;28;20184;-77
2022/09/20 08:59:36;;;;;;;5.68;2.20;;;15.30;99.90;;;;;;5072194;28;20215;-77
2022/09/20 09:02:12;;;;;;;6.05;2.28;;;15.30;99.90;;;;;;5080368;28;20176;-80
2022/09/20 09:04:41;;;;;;;4.57;2.00;;;15.40;99.90;;;;;;5078548;28;20180;-79
2022/09/20 09:07:15;;;;;;;4.25;1.80;;;15.40;99.90;;;;;;5073515;28;20172;-79
2022/09/20 09:09:46;;;;;;;3.60;1.63;;;15.40;99.90;;;;;;5073308;28;20171;-75
2022/09/20 09:12:25;;;;;;;3.67;1.40;;;15.40;99.90;;;;;;5069229;28;20207;-79
2022/09/20 09:14:58;;;;;;;4.53;1.60;;;15.50;99.90;;;;;;5059550;28;20192;-79
2022/09/20 09:17:30;;;;;;;5.13;1.48;;;15.60;99.90;;;;;;5078794;28;20172;-80
2022/09/20 09:19:58;;;;;;;3.63;1.38;;;15.70;99.90;;;;;;5078139;28;20168;-80
2022/09/20 09:22:39;;;;;;;3.65;1.45;;;15.80;99.90;;;;;;5078048;28;20168;-80
2022/09/20 09:25:31;;;;;;;5.78;1.50;;;16.00;99.90;;;;;;5057770;28;20202;-80
2022/09/20 09:28:02;;;;;;;6.32;1.50;;;16.20;99.90;;;;;;5063203;28;20188;-80
2022/09/20 09:30:33;;;;;;;2.72;1.40;;;16.30;99.90;;;;;;5068455;28;20193;-78
2022/09/20 09:33:25;;;;;;;2.33;1.02;;;16.40;99.90;;;;;;5059890;28;20204;-76
2022/09/20 09:36:05;;;;;;;5.43;1.00;;;16.50;99.90;;;;;;5069863;28;20275;-81
2022/09/20 09:38:36;;;;;;;4.15;1.98;;;16.50;99.90;;;;;;5078372;28;20286;-83
2022/09/20 09:41:24;;;;;;;3.72;1.83;;;16.60;99.90;;;;;;5077741;28;20175;-79
2022/09/20 09:44:05;;;;;;;2.67;1.30;;;16.60;99.90;;;;;;5077877;28;20253;-81
2022/09/20 09:46:35;;;;;;;2.22;1.05;;;16.60;99.90;;;;;;5067329;28;20179;-80
2022/09/20 09:49:07;;;;;;;3.80;1.35;;;16.70;99.90;;;;;;5075047;28;20184;-79
2022/09/20 09:51:34;;;;;;;3.28;1.27;;;16.70;99.90;;;;;;5079368;28;20167;-80
2022/09/20 09:54:03;;;;;;;3.25;1.13;;;16.70;99.90;;;;;;5078269;28;20257;-80
2022/09/20 09:57:19;;;;;;;2.63;0.95;;;16.80;99.90;;;;;;5062900;28;20218;-81
2022/09/20 09:59:59;;;;;;;3.20;1.35;;;16.90;99.90;;;;;;5006662;28;20204;-73
2022/09/20 10:02:57;;;;;;;3.83;1.50;;;17.00;99.90;;;;;;5089186;28;20196;-79
2022/09/20 10:06:00;;;;;;;3.65;1.23;;;17.00;99.90;;;;;;5065889;28;20271;-80
2022/09/20 10:08:55;;;;;;;3.33;1.15;;;17.10;99.90;;;;;;5061779;28;20195;-79
2022/09/20 10:11:21;;;;;;;2.67;1.10;;;17.10;99.90;;;;;;5078372;28;20247;-81
2022/09/20 10:14:20;;;;;;;3.65;1.30;;;17.20;99.90;;;;;;5078606;28;20298;-79
2022/09/20 10:17:08;;;;;;;4.47;1.48;;;17.20;99.90;;;;;;5068295;28;20443;-80
2022/09/20 10:19:45;;;;;;;3.55;1.20;;;17.20;99.90;;;;;;5064476;28;20195;-79
2022/09/20 10:22:53;;;;;;;1.80;1.10;;;17.20;99.90;;;;;;5076733;28;20173;-79
2022/09/20 10:25:35;;;;;;;2.97;1.20;;;17.10;99.90;;;;;;5064527;28;20197;-80
2022/09/20 10:28:15;;;;;;;2.78;1.00;;;17.00;99.90;;;;;;5065088;28;20168;-78
2022/09/20 10:31:26;;;;;;;3.53;1.15;;;17.00;99.90;;;;;;5076948;28;20196;-78
2022/09/20 10:34:06;;;;;;;2.13;1.00;;;16.90;99.90;;;;;;4996304;28;20216;-79
2022/09/20 10:36:53;;;;;;;2.55;1.35;;;16.80;99.90;;;;;;5072480;28;20195;-80
2022/09/20 10:39:36;;;;;;;2.60;1.00;;;16.70;99.90;;;;;;5077194;28;20278;-77
2022/09/20 10:45:36;;;;;;;2.78;0.90;;;16.70;99.90;;;;;;5094078;28;20159;-80
2022/09/20 10:48:11;;;;;;;3.88;1.20;;;16.70;99.90;;;;;;5063030;28;20200;-79
2022/09/20 10:50:47;;;;;;;5.55;1.40;;;16.70;99.90;;;;;;5094995;28;20175;-81
2022/09/20 10:53:28;;;;;;;2.53;1.10;;;16.70;99.90;;;;;;5069942;28;20545;-82
2022/09/20 10:56:17;;;;;;;1.38;0.90;;;16.70;99.90;;;;;;5076904;28;20179;-82
2022/09/20 10:59:10;;;;;;;2.28;0.90;;;16.70;99.90;;;;;;5076841;28;20175;-80
2022/09/20 11:01:42;;;;;;;2.55;1.10;;;16.60;99.90;;;;;;5080636;28;20428;-80
2022/09/20 11:04:19;;;;;;;2.60;0.95;;;16.60;99.90;;;;;;5080691;28;20179;-80
2022/09/20 11:07:03;;;;;;;2.25;1.10;;;16.60;99.90;;;;;;5071590;28;20179;-80
2022/09/20 11:09:35;;;;;;;1.85;0.98;;;16.50;99.90;;;;;;5082068;28;20272;-81
2022/09/20 11:12:26;;;;;;;4.72;1.55;;;16.40;99.90;;;;;;5083122;28;20192;-80
2022/09/20 11:14:57;;;;;;;2.00;1.20;;;16.30;99.90;;;;;;5084568;28;20176;-79
2022/09/20 11:17:34;;;;;;;2.03;0.95;;;16.30;99.90;;;;;;5087543;28;20203;-79
2022/09/20 11:20:05;;;;;;;2.55;1.10;;;16.30;99.90;;;;;;5082170;28;20172;-80
2022/09/20 11:22:43;;;;;;;2.80;1.02;;;16.30;99.90;;;;;;5070520;28;20206;-81
2022/09/20 11:25:14;;;;;;;4.82;1.10;;;16.30;99.90;;;;;;5068469;28;20196;-80
2022/09/20 11:27:43;;;;;;;1.83;1.00;;;16.30;99.90;;;;;;5066720;28;20259;-80
2022/09/20 11:30:24;;;;;;;2.72;1.10;;;16.40;99.90;;;;;;5080650;28;20176;-81
2022/09/20 11:33:05;;;;;;;2.60;1.20;;;16.40;99.90;;;;;;5063067;28;20361;-80
2022/09/20 11:35:41;;;;;;;5.07;1.17;;;16.50;99.90;;;;;;5067776;28;20164;-79
2022/09/20 11:38:30;;;;;;;2.13;0.90;;;16.70;99.90;;;;;;5081361;28;20178;-79
2022/09/20 11:40:59;;;;;;;2.92;1.10;;;16.80;99.90;;;;;;5081957;28;20184;-79
2022/09/20 11:43:30;;;;;;;2.22;0.88;;;16.90;99.90;;;;;;5075497;28;20164;-80
2022/09/20 11:46:03;;;;;;;2.47;0.93;;;16.90;99.90;;;;;;5080182;28;20207;-79
2022/09/20 11:48:37;;;;;;;3.58;1.23;;;17.00;99.90;;;;;;5080592;28;20175;-79
2022/09/20 11:51:09;;;;;;;2.30;1.30;;;17.00;99.90;;;;;;5098629;28;20196;-80
2022/09/20 11:54:05;;;;;;;2.40;1.08;;;16.90;99.90;;;;;;5080033;28;20199;-79
2022/09/20 11:56:33;;;;;;;2.17;1.10;;;16.90;99.90;;;;;;5080703;28;20199;-79
2022/09/20 11:59:01;;;;;;;3.78;1.10;;;16.90;99.90;;;;;;5076953;28;20191;-81
2022/09/20 12:01:31;;;;;;;3.05;1.08;;;16.90;99.90;;;;;;5073333;28;20161;-80
2022/09/20 12:04:25;;;;;;;3.97;1.20;;;16.90;99.90;;;;;;5060982;28;20173;-79
2022/09/20 12:07:25;;;;;;;2.47;1.10;;;16.90;99.90;;;;;;5054847;28;20200;-79
2022/09/20 12:10:07;;;;;;;2.00;0.98;;;16.90;99.90;;;;;;5071507;28;20216;-79
2022/09/20 12:12:36;;;;;;;3.03;1.10;;;16.90;99.90;;;;;;5068704;28;20200;-79
2022/09/20 12:15:20;;;;;;;2.08;1.10;;;16.90;99.90;;;;;;5080483;28;20196;-80
2022/09/20 12:17:46;;;;;;;2.35;1.10;;;16.90;99.90;;;;;;5060640;28;20252;-79
2022/09/20 12:20:33;;;;;;;2.50;1.05;;;17.00;99.90;;;;;;5076442;28;20287;-79
2022/09/20 12:23:40;;;;;;;3.28;1.13;;;17.00;99.90;;;;;;5080896;28;20191;-80
2022/09/20 12:26:05;;;;;;;3.75;1.30;;;17.00;99.90;;;;;;5037814;28;20215;-77
2022/09/20 12:28:40;;;;;;;1.92;0.88;;;17.00;99.90;;;;;;5077193;28;20173;-78
2022/09/20 12:31:36;;;;;;;2.35;1.17;;;16.90;99.90;;;;;;5077877;28;20171;-79
2022/09/20 12:34:02;;;;;;;3.10;1.17;;;16.90;99.90;;;;;;5075905;28;20203;-80
2022/09/20 12:36:45;;;;;;;4.03;1.20;;;16.90;99.90;;;;;;5065570;28;20267;-79
2022/09/20 12:39:12;;;;;;;1.92;0.90;;;16.90;99.90;;;;;;5078314;28;20200;-78
2022/09/20 12:42:08;;;;;;;2.55;1.25;;;16.90;99.90;;;;;;5077941;28;20172;-77
2022/09/20 12:44:38;;;;;;;3.83;1.30;;;16.80;99.90;;;;;;5065516;28;20204;-80
2022/09/20 12:47:16;;;;;;;1.83;1.10;;;16.70;99.90;;;;;;5066247;28;20197;-79
2022/09/20 12:52:55;;;;;;;2.70;0.90;;;16.60;99.90;;;;;;5091288;28;20332;-80
2022/09/20 12:55:32;;;;;;;2.03;1.15;;;16.60;99.90;;;;;;5070185;28;20220;-80
2022/09/20 12:58:13;;;;;;;2.80;1.15;;;16.70;99.90;;;;;;5081445;28;20172;-80
2022/09/20 13:00:47;;;;;;;2.45;1.00;;;16.70;99.90;;;;;;5076939;28;20203;-77
2022/09/20 13:03:22;;;;;;;1.52;0.90;;;16.70;99.90;;;;;;5075198;28;20179;-79
2022/09/20 13:06:10;;;;;;;1.98;0.90;;;16.80;99.90;;;;;;5073807;28;20488;-79
2022/09/20 13:09:12;;;;;;;1.85;1.00;;;16.80;99.90;;;;;;5058441;28;20192;-80
2022/09/20 13:11:42;;;;;;;1.85;0.95;;;16.80;99.90;;;;;;5073869;28;20202;-78
2022/09/20 13:14:22;;;;;;;2.22;0.73;;;16.80;99.90;;;;;;5065949;28;20192;-80
2022/09/20 13:17:15;;;;;;;2.13;0.80;;;16.80;99.90;;;;;;5080045;28;20176;-78
2022/09/20 13:19:53;;;;;;;2.65;0.90;;;16.80;99.90;;;;;;5078447;28;20206;-82
2022/09/20 13:22:21;;;;;;;2.72;0.80;;;16.80;99.90;;;;;;5080935;28;20206;-80
2022/09/20 13:24:56;;;;;;;1.67;0.70;;;16.90;99.90;;;;;;5079067;28;20431;-81
2022/09/20 13:27:29;;;;;;;1.95;0.82;;;17.00;99.90;;;;;;5078807;28;20173;-80
2022/09/20 13:30:27;;;;;;;1.05;0.60;;;17.20;99.90;;;;;;5080697;28;20191;-80
2022/09/20 13:32:53;;;;;;;3.10;0.90;;;17.50;99.90;;;;;;5058770;28;20223;-77
2022/09/20 13:35:26;;;;;;;1.05;0.55;;;17.90;99.90;;;;;;5058215;28;20192;-79
2022/09/20 13:37:59;;;;;;;1.42;0.70;;;18.20;99.90;;;;;;5070101;28;20267;-79
2022/09/20 13:40:32;;;;;;;3.17;0.70;;;18.40;99.90;;;;;;5083491;28;20169;-79
2022/09/20 13:43:02;;;;;;;1.30;0.70;;;18.70;99.90;;;;;;5060707;28;20221;-80
2022/09/20 13:45:29;;;;;;;2.03;0.93;;;18.90;99.90;;;;;;5066577;28;20180;-81
2022/09/20 13:47:57;;;;;;;1.35;0.63;;;19.10;99.90;;;;;;5077892;28;20176;-80
2022/09/20 13:50:29;;;;;;;1.77;0.82;;;19.20;99.90;;;;;;5078560;28;20175;-81
2022/09/20 13:52:57;;;;;;;2.20;0.80;;;19.30;99.90;;;;;;5081810;28;20196;-79
2022/09/20 13:55:39;;;;;;;3.28;1.02;;;19.40;99.90;;;;;;5078064;28;20164;-78
2022/09/20 13:58:07;;;;;;;2.45;1.00;;;19.50;99.90;;;;;;5083362;28;20182;-79
2022/09/20 14:00:36;;;;;;;3.92;1.10;;;19.60;99.90;;;;;;5078465;28;20178;-79
2022/09/20 14:03:04;;;;;;;3.28;1.00;;;19.60;99.90;;;;;;5069526;28;20179;-81